createdAt,value
2023-01-30T00:01:26.115Z,21.80
2023-01-30T00:03:52.901Z,22.77
2023-01-30T00:06:20.110Z,21.10
2023-01-30T00:08:47.165Z,25.13
2023-01-30T00:11:15.323Z,23.63
2023-01-30T00:13:42.798Z,22.60
2023-01-30T00:16:10.100Z,24.27
2023-01-30T00:18:38.102Z,22.47
2023-01-30T00:21:07.301Z,23.23
2023-01-30T00:23:35.577Z,23.80
2023-01-30T00:26:02.428Z,24.73
2023-01-30T00:28:29.135Z,25.80
2023-01-30T00:30:57.464Z,24.77
2023-01-30T00:33:26.023Z,22.83
2023-01-30T00:35:54.757Z,25.43
2023-01-30T00:38:22.676Z,25.17
2023-01-30T00:40:49.741Z,23.73
2023-01-30T00:43:37.357Z,24.60
2023-01-30T00:46:45.438Z,27.27
2023-01-30T00:49:12.367Z,25.30
2023-01-30T00:51:39.063Z,27.20
2023-01-30T00:54:05.883Z,28.27
2023-01-30T00:56:32.567Z,26.13
2023-01-30T00:58:59.311Z,22.53
2023-01-30T01:01:26.062Z,22.67
2023-01-30T01:03:52.739Z,23.30
2023-01-30T01:06:19.895Z,22.63
2023-01-30T01:08:46.646Z,22.17
2023-01-30T01:11:24.072Z,24.87
2023-01-30T01:13:56.501Z,19.87
2023-01-30T01:16:24.276Z,21.83
2023-01-30T01:18:51.925Z,22.23
2023-01-30T01:21:20.422Z,22.60
2023-01-30T01:23:56.372Z,23.93
2023-01-30T01:26:23.171Z,21.83
2023-01-30T01:28:53.782Z,22.97
2023-01-30T01:31:20.586Z,19.60
2023-01-30T01:33:48.075Z,20.83
2023-01-30T01:36:29.419Z,22.67
2023-01-30T01:39:03.440Z,18.80
2023-01-30T01:41:30.166Z,20.30
2023-01-30T01:44:09.710Z,18.27
2023-01-30T01:46:40.540Z,20.03
2023-01-30T01:49:20.429Z,21.37
2023-01-30T01:52:09.288Z,19.43
2023-01-30T01:54:42.634Z,23.93
2023-01-30T01:57:15.989Z,20.87
2023-01-30T01:59:53.983Z,23.47
2023-01-30T02:02:21.179Z,21.33
2023-01-30T02:05:06.362Z,23.77
2023-01-30T02:07:59.484Z,20.43
2023-01-30T02:10:50.874Z,24.73
2023-01-30T02:13:18.139Z,23.93
2023-01-30T02:15:45.439Z,24.57
2023-01-30T02:18:14.326Z,21.77
2023-01-30T02:20:56.079Z,24.87
2023-01-30T02:23:37.918Z,25.90
2023-01-30T02:26:15.900Z,26.30
2023-01-30T02:29:16.343Z,28.23
2023-01-30T02:31:44.626Z,26.77
2023-01-30T02:34:30.582Z,26.70
2023-01-30T02:37:06.261Z,23.73
2023-01-30T02:40:09.293Z,23.87
2023-01-30T02:42:52.770Z,24.03
2023-01-30T02:45:26.547Z,24.77
2023-01-30T02:48:28.699Z,28.17
2023-01-30T02:51:00.848Z,22.77
2023-01-30T02:53:34.165Z,26.27
2023-01-30T02:56:01.673Z,27.90
2023-01-30T02:58:40.402Z,26.50
2023-01-30T03:01:26.212Z,25.20
2023-01-30T03:04:07.665Z,27.67
2023-01-30T03:06:58.830Z,25.53
2023-01-30T03:09:49.841Z,28.63
2023-01-30T03:12:40.716Z,29.83
2023-01-30T03:15:23.215Z,26.83
2023-01-30T03:17:50.163Z,30.23
2023-01-30T03:20:19.962Z,28.00
2023-01-30T03:22:47.136Z,28.60
2023-01-30T03:25:19.432Z,28.87
2023-01-30T03:27:48.200Z,30.80
2023-01-30T03:30:15.662Z,29.07
2023-01-30T03:32:42.361Z,24.27
2023-01-30T03:35:09.485Z,32.83
2023-01-30T03:37:36.431Z,29.70
2023-01-30T03:40:04.458Z,31.70
2023-01-30T03:42:31.778Z,32.37
2023-01-30T03:44:58.458Z,29.77
2023-01-30T03:47:25.702Z,27.37
2023-01-30T03:49:53.250Z,29.83
2023-01-30T03:52:20.286Z,30.90
2023-01-30T03:54:47.125Z,28.97
2023-01-30T03:57:14.857Z,27.60
2023-01-30T03:59:41.630Z,30.37
2023-01-30T04:02:10.889Z,31.77
2023-01-30T04:04:37.663Z,32.93
2023-01-30T04:07:06.543Z,28.73
2023-01-30T04:09:33.715Z,29.33
2023-01-30T04:12:01.646Z,28.67
2023-01-30T04:14:33.424Z,30.63
2023-01-30T04:17:24.453Z,26.77
2023-01-30T04:20:10.628Z,30.23
2023-01-30T04:22:40.894Z,31.73
2023-01-30T04:25:08.317Z,26.30
2023-01-30T04:27:36.646Z,29.17
2023-01-30T04:30:12.694Z,25.93
2023-01-30T04:32:40.006Z,27.00
2023-01-30T04:35:07.257Z,23.23
2023-01-30T04:37:33.995Z,24.70
2023-01-30T04:40:00.754Z,24.63
2023-01-30T04:42:27.790Z,21.13
2023-01-30T04:45:14.573Z,22.07
2023-01-30T04:47:41.567Z,22.20
2023-01-30T04:50:09.101Z,24.60
2023-01-30T04:52:38.924Z,22.43
2023-01-30T04:55:08.002Z,25.33
2023-01-30T04:57:34.888Z,23.90
2023-01-30T05:00:01.588Z,21.90
2023-01-30T05:02:28.481Z,21.80
2023-01-30T05:04:55.208Z,19.03
2023-01-30T05:07:21.899Z,22.57
2023-01-30T05:09:48.652Z,23.80
2023-01-30T05:12:15.315Z,21.40
2023-01-30T05:14:42.050Z,20.73
2023-01-30T05:17:08.780Z,20.97
2023-01-30T05:19:35.628Z,25.03
2023-01-30T05:22:02.586Z,24.97
2023-01-30T05:24:29.284Z,23.77
2023-01-30T05:26:55.916Z,23.23
2023-01-30T05:29:22.707Z,18.93
2023-01-30T05:31:49.459Z,20.60
2023-01-30T05:34:16.180Z,20.30
2023-01-30T05:36:42.877Z,21.07
2023-01-30T05:39:09.631Z,18.37
2023-01-30T05:41:36.326Z,17.73
2023-01-30T05:44:03.101Z,18.53
2023-01-30T05:46:29.898Z,18.50
2023-01-30T05:48:56.654Z,20.00
2023-01-30T05:51:25.385Z,18.27
2023-01-30T05:53:52.535Z,21.57
2023-01-30T05:56:19.794Z,18.63
2023-01-30T05:58:55.059Z,18.40
2023-01-30T06:01:22.880Z,17.67
2023-01-30T06:03:50.282Z,17.60
2023-01-30T06:06:17.173Z,19.50
2023-01-30T06:08:43.858Z,19.60
2023-01-30T06:11:16.323Z,17.93
2023-01-30T06:13:43.737Z,19.13
2023-01-30T06:16:12.888Z,20.10
2023-01-30T06:18:40.758Z,20.90
2023-01-30T06:21:07.896Z,19.70
2023-01-30T06:23:35.086Z,17.67
2023-01-30T06:26:03.689Z,20.70
2023-01-30T06:28:31.764Z,21.47
2023-01-30T06:30:58.631Z,20.00
2023-01-30T06:33:25.485Z,19.43
2023-01-30T06:35:52.607Z,18.37
2023-01-30T06:38:20.758Z,21.80
2023-01-30T06:40:50.985Z,21.00
2023-01-30T06:43:18.487Z,19.07
2023-01-30T06:45:45.252Z,16.63
2023-01-30T06:48:12.120Z,16.97
2023-01-30T06:50:38.873Z,18.13
2023-01-30T06:53:07.774Z,21.17
2023-01-30T06:55:35.672Z,18.80
2023-01-30T06:58:02.842Z,18.93
2023-01-30T07:00:29.834Z,20.40
2023-01-30T07:02:56.550Z,17.77
2023-01-30T07:05:23.292Z,17.43
2023-01-30T07:07:50.031Z,17.63
2023-01-30T07:10:16.946Z,19.10
2023-01-30T07:12:45.788Z,18.30
2023-01-30T07:15:12.992Z,18.37
2023-01-30T07:17:42.806Z,19.47
2023-01-30T07:20:11.329Z,18.97
2023-01-30T07:22:38.222Z,19.10
2023-01-30T07:25:05.824Z,15.93
2023-01-30T07:27:32.732Z,16.43
2023-01-30T07:29:59.457Z,19.37
2023-01-30T07:32:26.504Z,19.83
2023-01-30T07:34:53.219Z,17.50
2023-01-30T07:37:19.885Z,18.97
2023-01-30T07:39:46.569Z,19.07
2023-01-30T07:42:13.287Z,18.07
2023-01-30T07:44:40.386Z,17.53
2023-01-30T07:47:07.358Z,17.87
2023-01-30T07:49:34.154Z,19.53
2023-01-30T07:52:00.839Z,14.97
2023-01-30T07:54:27.534Z,19.27
2023-01-30T07:56:54.199Z,17.13
2023-01-30T07:59:21.023Z,18.03
2023-01-30T08:01:47.754Z,18.27
2023-01-30T08:04:14.454Z,14.60
2023-01-30T08:06:41.264Z,17.10
2023-01-30T08:09:08.226Z,16.20
2023-01-30T08:11:35.205Z,15.57
2023-01-30T08:14:02.373Z,17.90
2023-01-30T08:16:29.203Z,16.40
2023-01-30T08:18:55.971Z,15.03
2023-01-30T08:21:22.689Z,18.00
2023-01-30T08:23:49.553Z,17.07
2023-01-30T08:26:16.283Z,20.77
2023-01-30T08:28:43.269Z,15.10
2023-01-30T08:31:12.893Z,13.90
2023-01-30T08:33:39.848Z,16.20
2023-01-30T08:36:07.078Z,15.80
2023-01-30T08:38:33.843Z,15.07
2023-01-30T08:41:01.074Z,13.03
2023-01-30T08:43:28.120Z,12.57
2023-01-30T08:45:55.765Z,13.57
2023-01-30T08:48:23.356Z,12.83
2023-01-30T08:50:54.546Z,12.70
2023-01-30T08:53:21.769Z,14.20
2023-01-30T08:55:53.040Z,13.23
2023-01-30T08:58:21.240Z,12.37
2023-01-30T09:00:49.407Z,9.80
2023-01-30T09:03:18.068Z,11.83
2023-01-30T09:05:44.743Z,11.23
2023-01-30T09:08:12.122Z,11.30
2023-01-30T09:10:38.965Z,10.40
2023-01-30T09:13:08.184Z,9.77
2023-01-30T09:15:34.928Z,11.03
2023-01-30T09:18:01.742Z,11.77
2023-01-30T09:20:28.400Z,8.37
2023-01-30T09:22:55.127Z,14.73
2023-01-30T09:25:21.864Z,8.10
2023-01-30T09:27:50.458Z,7.63
2023-01-30T09:30:18.127Z,7.57
2023-01-30T09:32:45.241Z,8.83
2023-01-30T09:35:12.115Z,6.23
2023-01-30T09:37:38.911Z,6.90
2023-01-30T09:40:06.457Z,10.23
2023-01-30T09:43:04.528Z,7.40
2023-01-30T09:45:35.713Z,7.07
2023-01-30T09:48:23.232Z,6.03
2023-01-30T09:50:52.959Z,6.77
2023-01-30T09:53:31.376Z,6.23
2023-01-30T09:55:59.140Z,6.00
2023-01-30T09:58:32.228Z,7.53
2023-01-30T10:01:07.448Z,6.30
2023-01-30T10:03:39.790Z,5.40
2023-01-30T10:06:11.107Z,7.37
2023-01-30T10:08:42.724Z,6.07
2023-01-30T10:11:18.404Z,6.00
2023-01-30T10:14:06.508Z,6.83
2023-01-30T10:16:42.064Z,6.10
2023-01-30T10:20:10.426Z,5.60
2023-01-30T10:22:39.887Z,7.77
2023-01-30T10:25:24.675Z,5.57
2023-01-30T10:28:26.818Z,5.80
2023-01-30T10:31:02.154Z,5.47
2023-01-30T10:33:33.970Z,9.27
2023-01-30T10:36:10.844Z,6.03
2023-01-30T10:38:54.813Z,5.93
2023-01-30T10:41:24.852Z,6.53
2023-01-30T10:44:13.570Z,10.93
2023-01-30T10:46:48.703Z,6.03
2023-01-30T10:49:24.060Z,5.87
2023-01-30T10:52:04.362Z,5.90
2023-01-30T10:54:48.558Z,6.57
2023-01-30T10:57:43.648Z,9.40
2023-01-30T11:00:26.603Z,5.67
2023-01-30T11:03:08.327Z,6.30
2023-01-30T11:05:47.208Z,10.97
2023-01-30T11:08:21.265Z,5.30
2023-01-30T11:10:48.989Z,6.30
2023-01-30T11:13:25.033Z,6.20
2023-01-30T11:15:54.388Z,7.33
2023-01-30T11:21:26.984Z,6.63
2023-01-30T11:24:05.868Z,5.40
2023-01-30T11:26:46.922Z,5.30
2023-01-30T11:29:28.069Z,6.67
2023-01-30T11:31:54.905Z,4.37
2023-01-30T11:34:24.308Z,5.00
2023-01-30T11:36:51.282Z,5.87
2023-01-30T11:39:23.257Z,5.20
2023-01-30T11:42:01.584Z,4.50
2023-01-30T11:44:33.880Z,5.40
2023-01-30T11:47:18.192Z,6.77
2023-01-30T11:49:52.398Z,8.23
2023-01-30T11:52:30.320Z,7.17
2023-01-30T11:55:05.586Z,5.17
2023-01-30T11:57:41.749Z,8.23
2023-01-30T12:00:25.568Z,6.87
2023-01-30T12:02:54.117Z,5.70
2023-01-30T12:05:31.975Z,5.10
2023-01-30T12:08:41.744Z,6.47
2023-01-30T12:11:29.828Z,6.23
2023-01-30T12:14:37.628Z,6.07
2023-01-30T12:17:21.377Z,7.17
2023-01-30T12:20:05.777Z,6.23
2023-01-30T12:22:45.989Z,7.73
2023-01-30T12:25:35.735Z,6.63
2023-01-30T12:28:27.597Z,7.40
2023-01-30T12:31:04.605Z,7.73
2023-01-30T12:33:33.281Z,8.27
2023-01-30T12:36:17.591Z,7.60
2023-01-30T12:39:13.201Z,9.03
2023-01-30T12:42:02.690Z,6.40
2023-01-30T12:44:39.590Z,8.97
2023-01-30T12:47:33.756Z,8.27
2023-01-30T12:50:00.376Z,8.43
2023-01-30T12:53:09.042Z,9.70
2023-01-30T12:55:51.430Z,8.43
2023-01-30T12:58:36.885Z,9.23
2023-01-30T13:01:25.034Z,9.33
2023-01-30T13:04:04.030Z,11.00
2023-01-30T13:06:52.416Z,7.90
2023-01-30T13:09:39.358Z,9.40
2023-01-30T13:12:23.779Z,10.20
2023-01-30T13:15:12.060Z,9.43
2023-01-30T13:17:59.942Z,11.70
2023-01-30T13:20:57.648Z,8.10
2023-01-30T13:23:43.943Z,15.37
2023-01-30T13:26:14.993Z,10.33
2023-01-30T13:28:49.170Z,8.83
2023-01-30T13:31:22.932Z,8.40
2023-01-30T13:33:56.349Z,8.07
2023-01-30T13:36:29.601Z,9.53
2023-01-30T13:39:04.221Z,8.17
2023-01-30T13:41:36.461Z,9.43
2023-01-30T13:44:31.439Z,9.27
2023-01-30T13:47:06.983Z,10.20
2023-01-30T13:49:51.462Z,7.03
2023-01-30T13:52:31.681Z,9.17
2023-01-30T13:55:01.196Z,7.70
2023-01-30T13:57:50.217Z,6.60
2023-01-30T14:00:27.369Z,9.60
2023-01-30T14:03:06.576Z,8.43
2023-01-30T14:05:51.895Z,8.33
2023-01-30T14:08:28.913Z,7.00
2023-01-30T14:10:57.326Z,8.17
2023-01-30T14:13:26.328Z,6.97
2023-01-30T14:16:03.969Z,7.50
2023-01-30T14:18:38.518Z,7.27
2023-01-30T14:21:21.056Z,5.70
2023-01-30T14:24:02.383Z,7.83
2023-01-30T14:26:47.805Z,6.63
2023-01-30T14:29:42.361Z,6.60
2023-01-30T14:32:12.745Z,5.93
2023-01-30T14:35:07.043Z,6.53
2023-01-30T14:37:41.378Z,6.17
2023-01-30T14:40:23.274Z,9.20
2023-01-30T14:43:19.399Z,8.20
2023-01-30T14:45:54.891Z,7.60
2023-01-30T14:48:46.862Z,7.43
2023-01-30T14:51:34.668Z,6.10
2023-01-30T14:54:14.400Z,6.93
2023-01-30T14:56:59.842Z,7.60
2023-01-30T14:59:59.778Z,7.50
2023-01-30T15:02:44.031Z,8.03
2023-01-30T15:05:24.911Z,5.73
2023-01-30T15:07:57.337Z,6.17
2023-01-30T15:10:32.213Z,9.20
2023-01-30T15:13:16.013Z,6.20
2023-01-30T15:15:48.435Z,8.30
2023-01-30T15:18:39.744Z,6.27
2023-01-30T15:21:32.577Z,8.13
2023-01-30T15:24:14.131Z,5.93
2023-01-30T15:27:07.165Z,7.77
2023-01-30T15:29:55.802Z,8.77
2023-01-30T15:32:27.629Z,8.70
2023-01-30T15:34:57.601Z,8.47
2023-01-30T15:37:30.988Z,6.03
2023-01-30T15:40:16.240Z,7.27
2023-01-30T15:42:44.870Z,5.80
2023-01-30T15:45:26.354Z,13.27
2023-01-30T15:47:59.238Z,9.80
2023-01-30T15:50:25.989Z,7.37
2023-01-30T15:52:54.052Z,7.70
2023-01-30T15:55:30.087Z,6.10
2023-01-30T15:58:00.616Z,7.97
2023-01-30T16:00:31.317Z,7.43
2023-01-30T16:03:00.245Z,10.93
2023-01-30T16:05:28.129Z,7.03
2023-01-30T16:07:56.607Z,6.43
2023-01-30T16:10:29.096Z,8.17
2023-01-30T16:13:02.339Z,7.10
2023-01-30T16:15:41.197Z,9.97
2023-01-30T16:18:16.853Z,7.63
2023-01-30T16:21:00.418Z,8.80
2023-01-30T16:23:36.035Z,8.70
2023-01-30T16:26:04.304Z,8.10
2023-01-30T16:28:32.274Z,11.30
2023-01-30T16:31:05.029Z,10.50
2023-01-30T16:33:36.560Z,10.50
2023-01-30T16:36:26.435Z,7.40
2023-01-30T16:38:54.547Z,7.73
2023-01-30T16:41:35.702Z,10.30
2023-01-30T16:44:10.209Z,6.47
2023-01-30T16:46:50.092Z,10.77
2023-01-30T16:49:24.964Z,10.13
2023-01-30T16:52:02.063Z,9.93
2023-01-30T16:54:31.069Z,9.27
2023-01-30T16:57:00.452Z,7.40
2023-01-30T16:59:34.145Z,8.70
2023-01-30T17:02:04.273Z,9.83
2023-01-30T17:04:32.790Z,9.47
2023-01-30T17:07:04.673Z,7.93
2023-01-30T17:09:36.222Z,12.97
2023-01-30T17:12:27.986Z,9.47
2023-01-30T17:15:10.000Z,13.37
2023-01-30T17:17:36.678Z,10.53
2023-01-30T17:20:04.884Z,13.90
2023-01-30T17:22:32.101Z,11.63
2023-01-30T17:25:04.571Z,8.87
2023-01-30T17:27:32.171Z,11.67
2023-01-30T17:29:58.981Z,11.73
2023-01-30T17:32:25.704Z,11.63
2023-01-30T17:34:52.386Z,12.17
2023-01-30T17:37:22.182Z,11.80
2023-01-30T17:39:49.235Z,24.40
2023-01-30T17:42:21.816Z,14.37
2023-01-30T17:44:48.745Z,13.07
2023-01-30T17:47:15.442Z,12.60
2023-01-30T17:49:42.108Z,10.23
2023-01-30T17:52:08.897Z,9.00
2023-01-30T17:54:35.635Z,25.77
2023-01-30T17:57:05.599Z,13.27
2023-01-30T17:59:33.006Z,14.43
2023-01-30T18:01:59.769Z,20.80
2023-01-30T18:04:26.513Z,13.30
2023-01-30T18:06:58.925Z,13.97
2023-01-30T18:09:26.842Z,14.20
2023-01-30T18:11:53.568Z,12.90
2023-01-30T18:14:21.330Z,15.43
2023-01-30T18:16:49.518Z,16.57
2023-01-30T18:19:18.363Z,15.20
2023-01-30T18:21:45.446Z,12.53
2023-01-30T18:24:13.450Z,19.07
2023-01-30T18:26:40.628Z,17.63
2023-01-30T18:29:09.600Z,18.00
2023-01-30T18:31:37.760Z,18.03
2023-01-30T18:34:05.088Z,14.53
2023-01-30T18:36:34.404Z,14.73
2023-01-30T18:39:01.272Z,17.07
2023-01-30T18:41:29.649Z,14.13
2023-01-30T18:44:01.489Z,14.83
2023-01-30T18:46:29.241Z,16.27
2023-01-30T18:48:57.015Z,19.97
2023-01-30T18:51:29.470Z,12.73
2023-01-30T18:53:56.874Z,16.73
2023-01-30T18:56:31.836Z,14.43
2023-01-30T18:59:02.502Z,13.77
2023-01-30T19:01:31.418Z,14.27
2023-01-30T19:03:59.882Z,15.80
2023-01-30T19:06:28.443Z,15.60
2023-01-30T19:08:57.089Z,14.00
2023-01-30T19:11:43.213Z,14.67
2023-01-30T19:14:10.696Z,14.57
2023-01-30T19:16:38.711Z,15.87
2023-01-30T19:19:06.647Z,15.73
2023-01-30T19:21:33.998Z,16.93
2023-01-30T19:24:12.113Z,14.10
2023-01-30T19:26:38.977Z,14.60
2023-01-30T19:29:06.103Z,17.00
2023-01-30T19:31:33.080Z,14.73
2023-01-30T19:34:02.186Z,15.87
2023-01-30T19:36:31.816Z,22.60
2023-01-30T19:38:59.927Z,17.30
2023-01-30T19:41:29.287Z,13.57
2023-01-30T19:43:57.937Z,15.83
2023-01-30T19:46:25.316Z,16.00
2023-01-30T19:48:52.065Z,19.13
2023-01-30T19:51:24.590Z,18.13
2023-01-30T19:53:54.521Z,17.93
2023-01-30T19:56:22.498Z,16.53
2023-01-30T19:58:52.418Z,16.70
2023-01-30T20:01:20.740Z,19.60
2023-01-30T20:03:48.059Z,20.93
2023-01-30T20:06:20.003Z,27.57
2023-01-30T20:08:49.928Z,18.37
2023-01-30T20:11:21.707Z,18.93
2023-01-30T20:13:48.953Z,17.73
2023-01-30T20:16:21.311Z,18.17
2023-01-30T20:18:53.313Z,18.40
2023-01-30T20:21:21.407Z,18.10
2023-01-30T20:23:48.744Z,20.30
2023-01-30T20:26:26.946Z,19.93
2023-01-30T20:28:57.213Z,17.80
2023-01-30T20:31:26.688Z,16.50
2023-01-30T20:33:55.679Z,18.80
2023-01-30T20:36:22.665Z,17.87
2023-01-30T20:38:50.456Z,16.37
2023-01-30T20:41:19.383Z,17.53
2023-01-30T20:43:51.704Z,18.30
2023-01-30T20:46:23.465Z,19.37
2023-01-30T20:48:53.483Z,21.13
2023-01-30T20:51:24.192Z,19.33
2023-01-30T20:53:59.447Z,16.43
2023-01-30T20:56:37.363Z,27.70
2023-01-30T20:59:06.441Z,16.50
2023-01-30T21:01:33.749Z,20.73
2023-01-30T21:04:09.000Z,19.43
2023-01-30T21:06:43.512Z,15.97
2023-01-30T21:09:20.168Z,21.90
2023-01-30T21:11:48.185Z,18.13
2023-01-30T21:14:16.278Z,20.43
2023-01-30T21:16:43.181Z,23.10
2023-01-30T21:19:14.227Z,20.67
2023-01-30T21:22:07.352Z,25.73
2023-01-30T21:24:34.011Z,17.20
2023-01-30T21:27:00.906Z,21.03
2023-01-30T21:29:28.833Z,18.57
2023-01-30T21:31:57.190Z,21.63
2023-01-30T21:34:24.511Z,23.73
2023-01-30T21:37:09.938Z,20.50
2023-01-30T21:39:55.440Z,16.23
2023-01-30T21:42:40.769Z,17.93
2023-01-30T21:45:08.047Z,25.33
2023-01-30T21:47:34.717Z,24.57
2023-01-30T21:50:01.415Z,22.17
2023-01-30T21:52:28.049Z,22.33
2023-01-30T21:54:55.118Z,20.03
2023-01-30T21:57:21.744Z,19.03
2023-01-30T21:59:48.371Z,18.03
2023-01-30T22:02:15.031Z,19.57
2023-01-30T22:04:42.384Z,19.60
2023-01-30T22:07:09.038Z,18.13
2023-01-30T22:09:36.407Z,26.07
2023-01-30T22:12:03.264Z,19.80
2023-01-30T22:14:30.803Z,23.23
2023-01-30T22:16:57.422Z,16.50
2023-01-30T22:19:24.090Z,20.97
2023-01-30T22:21:50.724Z,19.70
2023-01-30T22:24:17.542Z,18.57
2023-01-30T22:26:44.252Z,17.97
2023-01-30T22:29:11.011Z,16.53
2023-01-30T22:31:40.349Z,19.83
2023-01-30T22:34:07.321Z,19.17
2023-01-30T22:36:35.143Z,25.80
2023-01-30T22:39:02.363Z,17.47
2023-01-30T22:41:32.374Z,20.23
2023-01-30T22:44:00.407Z,19.57
2023-01-30T22:46:31.283Z,17.30
2023-01-30T22:48:59.233Z,18.07
2023-01-30T22:51:31.751Z,20.77
2023-01-30T22:54:01.171Z,17.60
2023-01-30T22:56:30.719Z,14.37
2023-01-30T22:58:57.620Z,19.67
2023-01-30T23:01:30.023Z,19.87
2023-01-30T23:04:10.204Z,18.67
2023-01-30T23:06:37.273Z,17.77
2023-01-30T23:09:05.793Z,19.10
2023-01-30T23:11:36.156Z,15.63
2023-01-30T23:14:17.982Z,20.67
2023-01-30T23:16:45.255Z,21.70
2023-01-30T23:19:13.416Z,19.97
2023-01-30T23:21:42.716Z,24.37
2023-01-30T23:24:20.722Z,21.07
2023-01-30T23:26:50.298Z,24.57
2023-01-30T23:29:19.621Z,20.33
2023-01-30T23:31:47.520Z,18.47
2023-01-30T23:34:17.082Z,18.90
2023-01-30T23:36:44.901Z,23.67
2023-01-30T23:39:13.437Z,20.73
2023-01-30T23:41:41.035Z,18.47
2023-01-30T23:44:08.314Z,20.63
2023-01-30T23:46:37.797Z,21.17
2023-01-30T23:49:07.153Z,23.53
2023-01-30T23:51:36.433Z,19.70
2023-01-30T23:54:04.428Z,18.27
2023-01-30T23:56:33.556Z,21.60
2023-01-30T23:59:00.283Z,20.93
